Time;durP1;ratioP1;P1;durP2;ratioP2;P2;SDS_P1;SDS_P2;PMS_P1;PMS_P2;Temp;Humidity;BMP_temperature;BMP_pressure;BME280_temperature;BME280_humidity;BME280_pressure;Samples;Min_cycle;Max_cycle;Signal;HPM_P1;HPM_P2
2023/01/12 00:02:25;;;;;;;11.50;7.30;;;;;;;3.66;76.14;96682.67;108943;1274;22534;-81
2023/01/12 00:04:58;;;;;;;12.10;7.30;;;;;;;3.66;76.39;96677.56;108960;1274;22573;-81
2023/01/12 00:07:32;;;;;;;13.20;7.60;;;;;;;3.63;76.47;96677.96;108914;1267;22543;-82
2023/01/12 00:10:03;;;;;;;12.40;7.20;;;;;;;3.60;76.77;96676.60;109020;1274;23223;-81
2023/01/12 00:12:34;;;;;;;13.80;8.40;;;;;;;3.56;76.91;96678.32;108930;1274;22555;-82
2023/01/12 00:15:07;;;;;;;12.70;6.60;;;;;;;3.52;77.09;96677.71;108976;1274;22553;-82
2023/01/12 00:17:38;;;;;;;13.30;7.30;;;;;;;3.48;77.48;96687.37;109044;1274;22574;-81
2023/01/12 00:20:12;;;;;;;13.80;8.00;;;;;;;3.45;77.99;96690.19;108938;1274;22584;-81
2023/01/12 00:22:44;;;;;;;12.50;7.50;;;;;;;3.42;78.28;96694.69;109080;1270;22556;-82
2023/01/12 00:25:15;;;;;;;9.90;5.60;;;;;;;3.39;78.75;96700.23;108925;1271;22531;-81
2023/01/12 00:27:48;;;;;;;12.50;7.40;;;;;;;3.36;79.14;96696.23;108980;1271;58575;-82
2023/01/12 00:30:20;;;;;;;11.40;7.20;;;;;;;3.34;79.45;96697.19;109029;1273;22541;-82
2023/01/12 00:32:52;;;;;;;11.80;6.50;;;;;;;3.35;79.63;96697.94;108979;1273;22531;-82
2023/01/12 00:35:26;;;;;;;10.80;6.80;;;;;;;3.35;80.04;96688.97;108966;1270;22550;-81
2023/01/12 00:37:57;;;;;;;11.80;6.60;;;;;;;3.33;80.30;96698.89;108993;1268;22532;-82
2023/01/12 00:40:29;;;;;;;11.00;5.00;;;;;;;3.33;80.58;96704.64;108910;1268;22674;-82
2023/01/12 00:45:52;;;;;;;9.90;6.30;;;;;;;3.31;81.21;96719.55;108954;1271;22607;-82
2023/01/12 00:48:24;;;;;;;9.50;5.80;;;;;;;3.30;81.74;96717.96;109008;1272;25409;-81
2023/01/12 00:50:55;;;;;;;9.30;5.70;;;;;;;3.29;82.52;96725.64;108976;1272;25417;-81
2023/01/12 00:53:27;;;;;;;10.60;6.10;;;;;;;3.29;83.16;96719.63;109037;1272;22545;-81
2023/01/12 00:56:02;;;;;;;5.70;3.60;;;;;;;3.31;83.81;96708.43;108929;1271;22529;-82
2023/01/12 00:58:34;;;;;;;6.90;3.80;;;;;;;3.38;84.72;96711.05;109012;1274;23034;-81
2023/01/12 01:01:09;;;;;;;7.70;4.50;;;;;;;3.42;85.00;96714.52;108966;1271;24348;-81
2023/01/12 01:03:40;;;;;;;7.20;3.80;;;;;;;3.50;85.20;96716.65;108968;1274;22556;-82
2023/01/12 01:06:11;;;;;;;8.00;4.70;;;;;;;3.51;85.68;96711.11;108992;1270;22540;-82
2023/01/12 01:08:42;;;;;;;7.10;4.60;;;;;;;3.51;85.76;96713.74;108929;1269;23018;-82
2023/01/12 01:11:14;;;;;;;7.30;4.00;;;;;;;3.46;85.38;96707.66;108947;1269;24327;-82
2023/01/12 01:13:46;;;;;;;7.40;5.00;;;;;;;3.46;85.27;96708.51;108976;1267;22567;-81
2023/01/12 01:16:19;;;;;;;8.60;3.70;;;;;;;3.49;85.30;96703.36;108950;1274;22528;-82
2023/01/12 01:18:50;;;;;;;8.20;4.30;;;;;;;3.56;84.85;96704.58;108942;1274;22537;-81
2023/01/12 01:21:22;;;;;;;6.20;3.50;;;;;;;3.64;84.53;96706.55;108957;1273;22552;-81
2023/01/12 01:23:54;;;;;;;7.30;4.20;;;;;;;3.70;84.48;96704.77;108936;1275;25367;-81
2023/01/12 01:26:25;;;;;;;6.30;4.10;;;;;;;3.76;84.49;96702.92;108951;1274;22563;-81
2023/01/12 01:28:59;;;;;;;4.80;2.70;;;;;;;3.82;84.06;96699.02;109039;1273;22684;-82
2023/01/12 01:31:32;;;;;;;8.10;3.30;;;;;;;3.89;83.57;96693.31;109013;1272;22656;-81
2023/01/12 01:34:03;;;;;;;6.00;2.90;;;;;;;3.90;83.08;96696.42;109067;1272;22550;-81
2023/01/12 01:36:35;;;;;;;7.90;4.10;;;;;;;3.92;82.05;96700.70;108985;1267;22576;-81
2023/01/12 01:39:06;;;;;;;6.80;4.50;;;;;;;3.92;81.58;96701.80;108995;1273;22567;-82
2023/01/12 01:41:37;;;;;;;7.80;4.40;;;;;;;3.92;81.36;96703.22;108967;1274;22538;-81
2023/01/12 01:44:45;;;;;;;7.40;4.70;;;;;;;3.91;81.16;96712.91;108943;1271;23732;-81
2023/01/12 01:47:25;;;;;;;5.60;3.50;;;;;;;3.90;80.78;96713.67;108945;1273;22704;-81
2023/01/12 01:50:00;;;;;;;6.50;4.40;;;;;;;3.91;80.85;96719.89;109020;1273;22549;-81
2023/01/12 01:52:34;;;;;;;7.60;4.60;;;;;;;3.92;80.90;96719.80;109033;1273;22534;-81
2023/01/12 01:55:11;;;;;;;8.10;4.00;;;;;;;3.93;80.84;96718.77;108988;1273;26585;-81
2023/01/12 01:57:49;;;;;;;7.30;4.20;;;;;;;3.95;80.56;96723.98;109001;1273;24265;-81
2023/01/12 02:00:22;;;;;;;6.00;3.20;;;;;;;3.98;80.68;96717.52;109004;1272;22543;-81
2023/01/12 02:02:55;;;;;;;7.60;4.40;;;;;;;3.97;80.75;96719.66;108967;1270;22658;-81
2023/01/12 02:05:28;;;;;;;5.10;3.50;;;;;;;3.98;80.91;96728.48;108981;1271;26741;-81
2023/01/12 02:08:07;;;;;;;7.20;3.70;;;;;;;3.98;81.08;96728.23;109020;1273;28927;-82
2023/01/12 02:10:39;;;;;;;6.30;3.40;;;;;;;3.98;81.23;96732.64;108998;1273;22559;-81
2023/01/12 02:16:20;;;;;;;7.30;3.80;;;;;;;4.02;81.35;96732.12;108993;1273;22578;-82
2023/01/12 02:19:04;;;;;;;6.70;3.80;;;;;;;4.00;81.37;96730.89;108990;1272;22583;-82
2023/01/12 02:22:05;;;;;;;6.60;3.50;;;;;;;4.01;81.43;96732.00;109124;1267;25419;-82
2023/01/12 02:24:56;;;;;;;4.70;3.20;;;;;;;4.00;81.80;96726.01;108886;1273;22573;-82
2023/01/12 02:27:42;;;;;;;3.80;2.00;;;;;;;3.99;81.93;96729.09;108993;1274;24317;-82
2023/01/12 02:30:38;;;;;;;4.30;2.20;;;;;;;4.01;82.32;96729.13;109028;1266;22623;-82
2023/01/12 02:33:23;;;;;;;4.10;2.10;;;;;;;4.02;82.96;96733.59;108981;1273;25499;-82
2023/01/12 02:36:01;;;;;;;3.10;2.00;;;;;;;4.06;83.31;96737.50;109016;1273;22564;-82
2023/01/12 02:38:38;;;;;;;3.30;2.10;;;;;;;4.14;83.81;96734.88;109007;1273;22527;-82
2023/01/12 02:42:39;;;;;;;3.70;2.30;;;;;;;4.19;83.90;96745.03;108940;1273;23236;-82
2023/01/12 02:44:19;;;;;;;5.40;2.60;;;;;;;4.21;83.79;96739.34;108970;1273;22543;-82
2023/01/12 02:46:51;;;;;;;3.80;2.10;;;;;;;4.18;84.04;96747.75;108999;1273;22535;-82
2023/01/12 02:49:27;;;;;;;1.70;1.20;;;;;;;4.13;84.42;96753.27;109028;1273;25053;-82
2023/01/12 02:52:06;;;;;;;3.80;2.10;;;;;;;4.10;84.80;96756.90;109034;1270;22542;-82
2023/01/12 02:54:43;;;;;;;3.60;2.30;;;;;;;4.07;85.00;96755.88;108959;1274;22552;-82
2023/01/12 02:57:16;;;;;;;4.40;2.60;;;;;;;4.03;85.28;96754.75;109018;1273;22550;-82
2023/01/12 02:59:49;;;;;;;3.30;2.40;;;;;;;4.00;85.64;96759.11;109003;1267;22557;-81
2023/01/12 03:02:23;;;;;;;4.20;2.80;;;;;;;3.95;85.90;96752.77;108967;1274;22532;-82
2023/01/12 03:04:55;;;;;;;3.70;2.60;;;;;;;3.88;86.61;96751.63;109019;1267;22575;-82
2023/01/12 03:07:47;;;;;;;3.90;3.00;;;;;;;3.82;86.72;96755.50;108930;1274;22542;-82
2023/01/12 03:10:37;;;;;;;4.90;2.90;;;;;;;3.78;87.09;96751.20;108958;1267;22605;-82
2023/01/12 03:13:11;;;;;;;3.90;2.40;;;;;;;3.75;87.42;96761.52;108945;1267;25536;-82
2023/01/12 03:15:46;;;;;;;5.40;2.70;;;;;;;3.72;87.57;96764.52;108984;1270;24219;-82
2023/01/12 03:18:25;;;;;;;3.20;1.70;;;;;;;3.70;87.87;96766.98;108958;1270;26129;-82
2023/01/12 03:21:01;;;;;;;5.60;2.70;;;;;;;3.67;88.04;96771.97;108979;1274;22560;-82
2023/01/12 03:23:41;;;;;;;4.40;2.70;;;;;;;3.65;88.37;96774.38;108954;1268;22833;-82
2023/01/12 03:26:17;;;;;;;4.90;2.50;;;;;;;3.63;88.55;96769.40;108930;1274;22532;-82
2023/01/12 03:28:54;;;;;;;4.30;2.90;;;;;;;3.59;88.57;96769.31;108942;1273;22539;-82
2023/01/12 03:31:26;;;;;;;3.60;2.60;;;;;;;3.58;88.70;96771.19;108989;1274;22531;-82
2023/01/12 03:33:59;;;;;;;4.20;2.40;;;;;;;3.56;88.81;96774.52;108964;1274;24020;-82
2023/01/12 03:36:41;;;;;;;6.90;2.50;;;;;;;3.55;88.98;96763.38;108980;1274;22602;-83
2023/01/12 03:39:20;;;;;;;2.70;1.90;;;;;;;3.54;89.35;96762.48;109025;1273;22783;-82
2023/01/12 03:41:59;;;;;;;4.60;2.60;;;;;;;3.52;89.81;96756.39;109068;1267;23680;-82
2023/01/12 03:44:38;;;;;;;3.00;1.90;;;;;;;3.49;89.83;96755.01;109023;1266;22541;-82
2023/01/12 03:47:16;;;;;;;3.90;1.80;;;;;;;3.49;90.02;96758.36;109039;1272;22536;-82
2023/01/12 03:49:52;;;;;;;4.60;2.80;;;;;;;3.50;90.11;96762.52;108979;1274;22542;-82
2023/01/12 03:52:25;;;;;;;4.50;2.40;;;;;;;3.50;90.21;96768.13;109008;1268;23341;-82
2023/01/12 03:54:59;;;;;;;3.40;2.10;;;;;;;3.50;90.10;96769.08;109075;1273;22552;-82
2023/01/12 03:57:31;;;;;;;5.70;2.50;;;;;;;3.49;90.40;96765.13;109009;1267;25410;-82
2023/01/12 04:00:05;;;;;;;4.20;2.50;;;;;;;3.48;90.50;96769.66;108958;1273;22663;-82
2023/01/12 04:02:40;;;;;;;4.10;2.70;;;;;;;3.48;90.65;96769.08;109054;1267;22611;-82
2023/01/12 04:05:12;;;;;;;3.90;2.40;;;;;;;3.46;90.71;96768.42;109024;1273;23326;-82
2023/01/12 04:07:44;;;;;;;4.20;2.30;;;;;;;3.45;90.99;96768.13;108981;1273;33817;-82
2023/01/12 04:10:15;;;;;;;3.40;1.90;;;;;;;3.44;91.13;96771.73;109012;1269;22540;-82
2023/01/12 04:12:46;;;;;;;4.90;2.50;;;;;;;3.45;91.35;96771.64;108986;1266;25263;-82
2023/01/12 04:15:17;;;;;;;4.30;2.30;;;;;;;3.46;91.43;96773.45;109033;1267;22557;-82
2023/01/12 04:17:48;;;;;;;3.20;2.40;;;;;;;3.46;91.52;96772.09;108999;1267;23887;-82
2023/01/12 04:20:20;;;;;;;2.70;2.10;;;;;;;3.47;91.71;96766.27;109008;1267;22552;-82
2023/01/12 04:22:51;;;;;;;4.30;2.40;;;;;;;3.47;91.79;96764.09;109021;1273;22533;-82
2023/01/12 04:25:23;;;;;;;3.40;2.30;;;;;;;3.46;91.93;96763.64;109085;1273;22525;-82
2023/01/12 04:27:59;;;;;;;3.90;2.60;;;;;;;3.43;91.99;96764.36;109024;1267;22547;-82
2023/01/12 04:30:32;;;;;;;3.40;1.90;;;;;;;3.43;91.94;96764.38;109037;1267;22634;-82
2023/01/12 04:33:08;;;;;;;6.30;2.70;;;;;;;3.43;92.13;96765.89;108984;1267;22653;-82
2023/01/12 04:35:39;;;;;;;3.40;2.40;;;;;;;3.44;92.04;96764.96;109076;1267;23570;-82
2023/01/12 04:38:10;;;;;;;3.50;2.10;;;;;;;3.47;92.04;96768.21;109005;1267;23502;-82
2023/01/12 04:40:42;;;;;;;4.50;3.20;;;;;;;3.48;92.05;96771.44;109076;1273;22568;-82
2023/01/12 04:43:13;;;;;;;4.90;3.10;;;;;;;3.47;91.95;96769.70;108973;1273;22555;-82
2023/01/12 04:45:45;;;;;;;4.00;2.60;;;;;;;3.48;91.94;96763.68;109037;1268;24250;-82
2023/01/12 04:48:18;;;;;;;3.40;2.60;;;;;;;3.50;92.00;96761.09;109051;1267;23084;-82
2023/01/12 04:50:49;;;;;;;5.10;2.70;;;;;;;3.49;91.95;96761.66;109004;1267;22535;-82
2023/01/12 04:53:23;;;;;;;3.80;2.30;;;;;;;3.48;91.96;96756.86;108978;1270;22531;-82
2023/01/12 04:55:54;;;;;;;3.00;2.20;;;;;;;3.48;92.09;96758.17;109002;1273;22531;-82
2023/01/12 04:58:25;;;;;;;4.50;2.30;;;;;;;3.49;92.15;96763.13;109041;1273;22541;-82
2023/01/12 05:00:56;;;;;;;3.80;2.30;;;;;;;3.50;92.35;96761.45;109070;1273;23480;-82
2023/01/12 05:03:27;;;;;;;3.20;2.00;;;;;;;3.49;92.58;96759.45;109029;1270;22632;-83
2023/01/12 05:05:58;;;;;;;4.70;2.60;;;;;;;3.46;92.69;96750.27;109049;1273;22556;-82
2023/01/12 05:11:21;;;;;;;4.40;2.90;;;;;;;3.39;92.85;96749.57;109049;1273;24252;-82
2023/01/12 05:13:52;;;;;;;2.30;1.90;;;;;;;3.37;93.02;96755.58;109047;1273;23308;-82
2023/01/12 05:16:23;;;;;;;2.50;1.60;;;;;;;3.34;93.28;96756.61;109045;1269;22528;-83
2023/01/12 05:18:55;;;;;;;3.20;1.50;;;;;;;3.34;93.62;96756.02;109008;1263;25490;-82
2023/01/12 05:21:26;;;;;;;1.80;1.50;;;;;;;3.36;93.78;96757.90;109034;1273;23539;-82
2023/01/12 05:23:58;;;;;;;3.60;2.70;;;;;;;3.42;93.87;96760.88;109040;1273;22532;-82
2023/01/12 05:26:29;;;;;;;2.50;1.70;;;;;;;3.42;93.76;96767.17;109081;1267;22742;-82
2023/01/12 05:29:00;;;;;;;4.40;2.40;;;;;;;3.42;93.80;96768.65;109053;1273;22531;-82
2023/01/12 05:31:33;;;;;;;2.40;1.70;;;;;;;3.44;93.75;96768.35;108951;1273;22537;-82
2023/01/12 05:34:05;;;;;;;3.60;2.10;;;;;;;3.45;93.80;96772.11;109040;1273;25271;-82
2023/01/12 05:36:37;;;;;;;2.90;2.00;;;;;;;3.45;93.76;96771.70;109008;1273;22531;-82
2023/01/12 05:39:08;;;;;;;5.50;2.90;;;;;;;3.44;93.67;96773.46;108985;1273;23180;-82
2023/01/12 05:43:49;;;;;;;4.70;2.80;;;;;;;3.44;93.65;96779.11;109011;1254;22538;-82
2023/01/12 05:44:30;;;;;;;4.40;2.70;;;;;;;3.43;93.69;96785.54;109033;1273;22619;-82
2023/01/12 05:47:02;;;;;;;5.20;2.80;;;;;;;3.43;93.65;96784.77;109008;1273;23071;-82
2023/01/12 05:49:33;;;;;;;4.80;2.60;;;;;;;3.45;93.73;96786.59;109006;1273;22535;-81
2023/01/12 05:52:04;;;;;;;2.90;1.70;;;;;;;3.47;93.80;96789.46;109020;1267;22551;-82
2023/01/12 05:54:35;;;;;;;4.80;2.70;;;;;;;3.49;93.71;96792.64;109041;1273;23697;-81
2023/01/12 05:57:06;;;;;;;3.20;1.60;;;;;;;3.54;93.58;96795.44;109008;1273;22549;-81
2023/01/12 05:59:37;;;;;;;3.50;2.20;;;;;;;3.57;93.54;96800.48;109024;1273;22591;-82
2023/01/12 06:02:10;;;;;;;3.30;1.90;;;;;;;3.59;93.33;96802.67;109015;1273;22564;-81
2023/01/12 06:04:42;;;;;;;1.90;1.30;;;;;;;3.60;93.25;96804.36;109023;1273;22519;-82
2023/01/12 06:07:14;;;;;;;2.80;1.70;;;;;;;3.60;93.45;96804.88;109038;1265;22570;-82
2023/01/12 06:09:45;;;;;;;3.90;2.20;;;;;;;3.61;93.23;96801.50;109033;1268;22524;-82
2023/01/12 06:15:08;;;;;;;2.30;1.60;;;;;;;3.64;93.15;96809.63;109034;1273;22533;-82
2023/01/12 06:17:39;;;;;;;2.50;1.70;;;;;;;3.65;93.06;96804.82;109036;1272;26556;-81
2023/01/12 06:20:15;;;;;;;2.70;1.50;;;;;;;3.66;93.01;96813.58;109048;1267;24324;-82
2023/01/12 06:22:46;;;;;;;2.50;1.50;;;;;;;3.67;92.96;96812.51;108954;1273;22536;-82
2023/01/12 06:25:18;;;;;;;3.10;1.80;;;;;;;3.68;92.79;96818.35;109057;1267;22554;-82
2023/01/12 06:27:49;;;;;;;2.00;1.60;;;;;;;3.68;92.67;96822.64;109071;1267;22556;-82
2023/01/12 06:30:21;;;;;;;3.60;2.00;;;;;;;3.68;92.80;96823.95;109006;1273;22552;-82
2023/01/12 06:32:54;;;;;;;3.10;1.80;;;;;;;3.65;92.74;96824.30;108977;1270;22527;-82
2023/01/12 06:35:25;;;;;;;5.10;2.50;;;;;;;3.65;92.91;96830.79;109064;1267;23182;-82
2023/01/12 06:37:58;;;;;;;3.40;2.20;;;;;;;3.66;92.98;96837.92;108934;1273;22552;-82
2023/01/12 06:40:29;;;;;;;2.60;2.00;;;;;;;3.68;93.19;96840.41;109027;1273;22527;-82
2023/01/12 06:43:01;;;;;;;2.40;1.80;;;;;;;3.70;93.10;96846.53;109035;1267;25523;-82
2023/01/12 06:45:34;;;;;;;2.50;1.60;;;;;;;3.72;93.10;96846.30;109019;1270;22601;-82
2023/01/12 06:48:06;;;;;;;3.30;2.10;;;;;;;3.74;93.05;96843.59;108924;1264;39845;-82
2023/01/12 06:50:37;;;;;;;2.70;2.00;;;;;;;3.80;92.99;96836.83;109039;1266;23181;-82
2023/01/12 06:53:09;;;;;;;2.80;2.00;;;;;;;3.81;93.03;96839.35;109038;1249;22531;-81
2023/01/12 06:55:47;;;;;;;4.10;2.50;;;;;;;3.82;93.02;96838.27;109034;1273;23403;-82
2023/01/12 06:58:18;;;;;;;5.10;2.70;;;;;;;3.82;92.80;96841.25;109037;1267;25486;-81
2023/01/12 07:00:49;;;;;;;3.80;1.80;;;;;;;3.81;93.09;96843.52;108960;1274;22539;-81
2023/01/12 07:03:21;;;;;;;4.60;2.40;;;;;;;3.80;93.12;96841.34;109043;1273;22567;-82
2023/01/12 07:05:53;;;;;;;3.10;1.90;;;;;;;3.80;93.08;96841.30;109029;1269;22596;-82
2023/01/12 07:08:27;;;;;;;3.10;1.30;;;;;;;3.80;93.12;96837.46;108978;1267;51794;-81
2023/01/12 07:11:02;;;;;;;2.30;1.40;;;;;;;3.80;93.08;96837.98;109032;1273;22556;-82
2023/01/12 07:13:33;;;;;;;3.90;1.60;;;;;;;3.81;93.18;96835.94;108973;1266;22538;-82
2023/01/12 07:16:08;;;;;;;4.70;2.40;;;;;;;3.82;93.17;96835.75;108993;1273;22566;-82
2023/01/12 07:18:39;;;;;;;6.60;3.40;;;;;;;3.84;93.21;96837.40;109039;1273;22535;-82
2023/01/12 07:21:15;;;;;;;5.20;2.70;;;;;;;3.84;93.18;96838.83;109020;1270;22580;-82
2023/01/12 07:23:46;;;;;;;2.90;2.30;;;;;;;3.86;93.13;96844.27;108969;1273;22535;-82
2023/01/12 07:26:20;;;;;;;4.80;2.40;;;;;;;3.90;93.04;96845.33;109022;1273;22778;-82
2023/01/12 07:28:51;;;;;;;3.70;2.30;;;;;;;3.93;93.00;96845.03;109036;1273;22640;-82
2023/01/12 07:31:22;;;;;;;3.40;2.30;;;;;;;3.97;92.98;96845.34;108987;1273;22691;-81
2023/01/12 07:33:55;;;;;;;4.30;2.80;;;;;;;3.99;92.87;96851.21;109039;1273;22523;-81
2023/01/12 07:36:26;;;;;;;3.80;2.70;;;;;;;4.03;92.82;96848.09;108997;1273;22605;-82
2023/01/12 07:38:59;;;;;;;4.20;3.00;;;;;;;4.07;92.77;96850.66;109031;1273;25330;-81
2023/01/12 07:44:23;;;;;;;4.30;2.80;;;;;;;4.14;92.42;96855.98;109062;1273;25403;-81
2023/01/12 07:46:54;;;;;;;4.60;3.30;;;;;;;4.15;92.47;96861.57;109066;1265;24389;-82
2023/01/12 07:49:26;;;;;;;3.90;3.10;;;;;;;4.20;92.42;96867.16;109039;1253;22589;-81
2023/01/12 07:51:59;;;;;;;5.30;3.10;;;;;;;4.28;92.32;96865.29;108969;1273;22523;-81
2023/01/12 07:54:32;;;;;;;4.70;2.60;;;;;;;4.32;92.24;96867.14;109032;1273;22527;-81
2023/01/12 07:57:03;;;;;;;5.30;3.40;;;;;;;4.35;91.98;96864.58;108999;1273;22520;-81
2023/01/12 07:59:34;;;;;;;4.50;3.20;;;;;;;4.40;91.92;96860.65;108950;1266;22649;-81
2023/01/12 08:02:07;;;;;;;5.90;3.30;;;;;;;4.47;91.73;96862.52;108953;1274;22579;-82
2023/01/12 08:04:38;;;;;;;4.60;3.20;;;;;;;4.52;91.63;96865.94;108973;1274;23149;-81
2023/01/12 08:07:09;;;;;;;6.00;3.90;;;;;;;4.57;91.40;96864.17;108983;1273;22711;-82
2023/01/12 08:09:40;;;;;;;5.70;3.90;;;;;;;4.70;91.29;96870.80;109006;1273;22679;-81
2023/01/12 08:12:11;;;;;;;6.70;4.30;;;;;;;4.91;91.20;96876.44;109038;1273;22546;-82
2023/01/12 08:14:43;;;;;;;6.80;4.10;;;;;;;5.03;90.80;96880.38;109030;1273;23525;-82
2023/01/12 08:17:18;;;;;;;6.20;4.10;;;;;;;5.15;90.55;96884.22;109063;1272;24350;-82
2023/01/12 08:19:54;;;;;;;6.20;4.10;;;;;;;5.19;90.25;96888.48;109040;1272;22527;-82
2023/01/12 08:22:31;;;;;;;6.50;4.60;;;;;;;5.11;89.92;96891.20;109055;1266;22527;-82
2023/01/12 08:25:10;;;;;;;6.80;4.00;;;;;;;5.08;89.72;96894.83;109073;1272;22531;-82
2023/01/12 08:27:45;;;;;;;5.90;3.90;;;;;;;5.08;90.08;96893.09;108981;1266;27854;-82
2023/01/12 08:30:17;;;;;;;4.80;3.30;;;;;;;5.06;89.80;96891.90;108987;1274;24198;-82
2023/01/12 08:32:48;;;;;;;7.00;4.20;;;;;;;5.03;89.50;96891.89;109053;1270;23061;-82
2023/01/12 08:35:23;;;;;;;6.00;3.90;;;;;;;5.02;89.62;96900.91;109004;1267;24378;-82
2023/01/12 08:37:54;;;;;;;6.20;3.80;;;;;;;5.06;89.65;96903.30;108965;1273;22544;-82
2023/01/12 08:41:31;;;;;;;6.00;3.80;;;;;;;5.11;89.81;96906.48;108952;1267;22550;-82
2023/01/12 08:44:00;;;;;;;5.70;3.50;;;;;;;5.21;89.84;96905.88;109031;1273;22555;-81
2023/01/12 08:46:12;;;;;;;5.30;3.60;;;;;;;5.30;89.15;96905.92;109029;1270;22581;-82
2023/01/12 08:48:43;;;;;;;4.20;2.60;;;;;;;5.37;89.47;96907.73;108987;1273;40870;-82
2023/01/12 08:51:14;;;;;;;4.60;3.20;;;;;;;5.42;89.15;96906.39;109058;1273;22524;-82
2023/01/12 08:53:45;;;;;;;5.50;3.30;;;;;;;5.48;89.22;96909.89;109020;1273;22589;-82
2023/01/12 08:56:16;;;;;;;5.60;3.30;;;;;;;5.57;89.07;96903.69;109066;1273;26511;-82
2023/01/12 08:58:47;;;;;;;4.60;3.10;;;;;;;5.64;88.89;96903.48;108980;1267;22583;-82
2023/01/12 09:01:19;;;;;;;6.10;3.80;;;;;;;5.68;88.49;96901.65;108971;1273;22648;-82
2023/01/12 09:03:50;;;;;;;6.60;4.10;;;;;;;5.70;88.28;96896.05;108972;1274;22594;-82
2023/01/12 09:06:24;;;;;;;4.50;3.20;;;;;;;5.70;88.24;96898.80;108970;1273;23931;-82
2023/01/12 09:08:58;;;;;;;5.00;3.00;;;;;;;5.76;88.28;96899.71;108992;1273;22555;-82
2023/01/12 09:11:31;;;;;;;6.00;3.30;;;;;;;5.83;88.20;96890.95;108962;1266;22595;-82
2023/01/12 09:14:03;;;;;;;5.00;2.60;;;;;;;5.83;87.88;96890.77;108934;1274;22715;-82
2023/01/12 09:16:35;;;;;;;5.60;3.10;;;;;;;5.77;87.56;96883.85;108932;1267;22527;-82
2023/01/12 09:19:06;;;;;;;5.70;3.50;;;;;;;5.79;87.67;96880.83;108984;1268;22523;-82
2023/01/12 09:21:40;;;;;;;5.10;3.40;;;;;;;5.86;88.01;96878.04;108942;1274;22551;-82
2023/01/12 09:24:13;;;;;;;5.00;3.10;;;;;;;5.94;88.05;96879.25;108977;1274;22657;-82
2023/01/12 09:26:45;;;;;;;5.10;3.20;;;;;;;5.88;87.31;96880.71;108923;1274;22528;-82
2023/01/12 09:29:16;;;;;;;4.90;3.60;;;;;;;5.82;87.45;96884.45;108951;1268;22613;-82
2023/01/12 09:31:48;;;;;;;5.50;3.50;;;;;;;5.89;87.32;96889.02;108924;1273;24322;-82
2023/01/12 09:34:21;;;;;;;5.10;3.10;;;;;;;5.92;87.36;96887.42;108992;1274;22999;-81
2023/01/12 09:36:54;;;;;;;4.30;3.00;;;;;;;5.97;87.06;96886.44;108973;1274;22597;-82
2023/01/12 09:39:27;;;;;;;6.50;3.20;;;;;;;5.97;87.02;96883.13;108959;1256;23319;-81
2023/01/12 09:47:48;;;;;;;5.40;3.40;;;;;;;6.12;86.83;96870.53;109038;1268;22543;-82
2023/01/12 09:50:22;;;;;;;4.70;2.50;;;;;;;6.13;86.42;96875.08;108928;1273;25338;-82
2023/01/12 09:53:00;;;;;;;4.60;3.40;;;;;;;5.97;85.92;96872.96;108994;1251;22523;-82
2023/01/12 09:55:47;;;;;;;5.10;3.50;;;;;;;6.02;86.41;96866.33;108978;1270;24347;-82
2023/01/12 09:58:30;;;;;;;4.00;3.10;;;;;;;6.12;86.39;96863.33;108984;1273;25426;-81
2023/01/12 10:01:08;;;;;;;4.20;2.50;;;;;;;6.19;85.74;96864.36;108965;1274;24247;-82
2023/01/12 10:03:43;;;;;;;4.40;2.90;;;;;;;6.27;85.82;96864.00;108971;1267;24276;-82
2023/01/12 10:06:17;;;;;;;6.10;2.60;;;;;;;6.38;86.08;96865.29;109001;1270;24365;-82
2023/01/12 10:08:51;;;;;;;5.00;3.10;;;;;;;6.43;85.35;96869.30;108951;1267;22541;-83
2023/01/12 10:11:30;;;;;;;5.10;3.50;;;;;;;6.43;84.93;96869.23;109048;1267;22558;-83
2023/01/12 10:14:18;;;;;;;4.60;3.10;;;;;;;6.46;84.93;96873.48;108982;1267;24262;-83
2023/01/12 10:17:01;;;;;;;5.80;3.90;;;;;;;6.47;84.80;96865.39;109003;1274;22595;-83
2023/01/12 10:19:39;;;;;;;6.90;4.30;;;;;;;6.51;84.51;96862.45;108925;1274;22537;-83
2023/01/12 10:22:35;;;;;;;5.60;3.90;;;;;;;6.58;84.38;96859.09;108954;1267;24422;-82
2023/01/12 10:25:31;;;;;;;4.20;2.70;;;;;;;6.60;84.38;96861.91;108979;1274;22608;-82
2023/01/12 10:28:08;;;;;;;6.40;3.10;;;;;;;6.53;83.72;96855.98;108944;1270;22615;-82
2023/01/12 10:30:40;;;;;;;5.10;3.50;;;;;;;6.49;83.95;96855.26;108981;1268;25706;-81
2023/01/12 10:33:15;;;;;;;6.80;4.30;;;;;;;6.55;83.86;96849.58;108952;1274;22524;-82
2023/01/12 10:35:56;;;;;;;6.30;4.00;;;;;;;6.43;83.11;96848.55;108935;1274;23316;-81
2023/01/12 10:38:32;;;;;;;6.80;3.90;;;;;;;6.28;83.37;96841.83;109008;1274;22546;-81
2023/01/12 10:41:18;;;;;;;6.10;4.00;;;;;;;6.21;83.45;96855.23;109022;1274;22549;-81
2023/01/12 10:44:13;;;;;;;7.20;3.80;;;;;;;6.22;83.48;96843.04;108919;1274;22662;-81
2023/01/12 10:47:07;;;;;;;7.60;4.30;;;;;;;6.19;83.49;96832.58;108945;1265;22594;-81
2023/01/12 10:49:38;;;;;;;5.40;4.00;;;;;;;6.14;83.49;96824.45;108957;1274;22538;-81
2023/01/12 10:52:26;;;;;;;6.10;3.40;;;;;;;6.15;84.07;96820.60;108970;1268;22644;-81
2023/01/12 10:54:57;;;;;;;6.40;3.50;;;;;;;6.18;83.71;96815.48;109001;1274;22545;-81
2023/01/12 10:57:29;;;;;;;6.00;3.60;;;;;;;6.26;83.87;96812.75;108975;1273;23514;-81
2023/01/12 11:00:04;;;;;;;5.50;3.70;;;;;;;6.33;83.49;96807.66;108977;1273;22618;-81
2023/01/12 11:02:44;;;;;;;5.50;3.60;;;;;;;6.40;83.62;96799.85;108914;1274;22570;-81
2023/01/12 11:05:32;;;;;;;6.80;4.10;;;;;;;6.59;83.56;96802.48;108957;1274;25301;-81
2023/01/12 11:08:20;;;;;;;6.10;3.70;;;;;;;6.73;83.21;96805.16;108962;1270;23021;-82
2023/01/12 11:10:52;;;;;;;7.50;4.40;;;;;;;6.78;82.57;96803.68;108959;1274;22606;-82
2023/01/12 11:13:31;;;;;;;4.90;3.10;;;;;;;6.82;82.48;96800.50;108984;1274;25445;-81
2023/01/12 11:16:16;;;;;;;7.50;4.90;;;;;;;6.82;81.50;96788.06;108944;1274;25414;-82
2023/01/12 11:18:51;;;;;;;5.10;3.40;;;;;;;6.70;81.22;96779.09;108964;1274;25542;-82
2023/01/12 11:21:26;;;;;;;7.50;4.30;;;;;;;6.77;81.72;96778.33;108970;1274;22536;-81
2023/01/12 11:24:04;;;;;;;7.40;4.60;;;;;;;6.96;81.69;96776.42;108952;1270;22571;-82
2023/01/12 11:26:43;;;;;;;8.00;5.20;;;;;;;7.03;81.34;96781.28;109031;1274;25426;-82
2023/01/12 11:29:32;;;;;;;5.90;4.10;;;;;;;7.04;81.22;96780.57;108957;1274;22648;-82
2023/01/12 11:32:12;;;;;;;6.80;4.60;;;;;;;7.03;80.81;96775.60;108923;1268;22502;-82
2023/01/12 11:34:55;;;;;;;8.00;4.40;;;;;;;7.05;80.69;96779.41;108978;1267;24243;-82
2023/01/12 11:37:27;;;;;;;9.70;5.80;;;;;;;6.92;80.45;96766.55;108970;1273;22539;-83
2023/01/12 11:40:08;;;;;;;8.60;5.80;;;;;;;6.97;80.51;96765.10;109002;1267;22596;-82
2023/01/12 11:45:41;;;;;;;9.80;6.60;;;;;;;7.42;81.09;96761.91;108934;1258;22534;-82
2023/01/12 11:48:22;;;;;;;8.10;5.00;;;;;;;7.58;80.01;96763.96;108906;1270;95390;-82
2023/01/12 11:50:56;;;;;;;8.20;5.30;;;;;;;7.58;79.25;96758.31;108969;1270;22540;-82
2023/01/12 11:53:27;;;;;;;9.20;5.60;;;;;;;7.63;79.16;96758.88;109011;1274;22582;-82
2023/01/12 11:56:17;;;;;;;8.90;5.70;;;;;;;7.74;79.11;96760.10;108910;1274;22595;-82
2023/01/12 11:58:58;;;;;;;7.10;4.40;;;;;;;7.94;78.81;96751.91;109003;1273;25405;-82
2023/01/12 12:01:39;;;;;;;5.40;3.40;;;;;;;7.95;78.25;96751.33;108955;1270;22543;-82
2023/01/12 12:04:29;;;;;;;7.30;3.70;;;;;;;8.00;77.80;96760.95;109035;1273;22600;-82
2023/01/12 12:07:16;;;;;;;6.10;3.90;;;;;;;7.96;76.72;96758.52;109028;1266;22753;-82
2023/01/12 12:10:15;;;;;;;9.70;5.20;;;;;;;7.83;76.26;96757.40;109036;1270;22666;-82
2023/01/12 12:13:03;;;;;;;6.10;3.90;;;;;;;7.52;76.01;96750.42;108990;1269;22545;-82
2023/01/12 12:15:43;;;;;;;8.00;4.20;;;;;;;7.34;76.79;96763.83;109029;1273;22533;-82
2023/01/12 12:18:18;;;;;;;;;;;;;;;7.32;76.87;96761.69;109012;1268;24562;-82
2023/01/12 12:21:04;;;;;;;6.30;3.80;;;;;;;7.28;76.70;96763.70;108978;1272;22576;-83
2023/01/12 12:23:50;;;;;;;6.80;4.00;;;;;;;7.27;77.47;96768.56;109051;1266;22560;-82
2023/01/12 12:26:27;;;;;;;6.60;4.00;;;;;;;7.33;77.37;96767.02;109043;1272;22560;-82
2023/01/12 12:29:20;;;;;;;5.90;3.60;;;;;;;7.39;77.40;96758.95;108945;1273;23925;-83
2023/01/12 12:32:12;;;;;;;6.20;3.10;;;;;;;7.50;76.75;96751.95;108983;1268;22536;-83
2023/01/12 12:35:20;;;;;;;4.40;2.70;;;;;;;7.49;75.76;96750.19;108920;1265;23222;-82
2023/01/12 12:38:01;;;;;;;3.70;2.30;;;;;;;7.42;76.28;96741.70;108997;1273;24490;-82